Etusivu
METAR-TAF:

METAR-TAF

Lentoasemat :

Sandpoint Airport (Dave Wall Field)

Sandpoint, Idaho, Yhdysvallat

Leveyspiiri: 48-17-58N, Pituuspiiri: 116-33-36W, korkeus merenpinnasta: 648 m

Tämänhetkinen sää

Tämä raportti tehtiin 33 minuuttia sitten, kello 13.15 UTC
tyyntä
Lämpötila 0°C
Kosteus 86%
Ilmanpaine 1024 hPa
Näkyvyys: 16.1 km
selkeää

METAR: KSZT 251315Z AUTO 00000KT 10SM CLR 00/M02 A3023 RMK AO2

Aika: 06:48 (13:48 UTC)


TAF: puuttuu

Säähavainnot ja -ennusteet yli 4000 lentoasemalta (METAR- ja TAF-raportit).

Käytössä olevat sääasemat on merkitty karttaan keltaisilla ja punaisilla pisteillä.

Aseta hiiri pisteen päälle nähdäksesi sääaseman nimen.

Klikkaa sitten nähdäksesi säähavainnot ja -ennusteet.

Kartan vaihtaminen: klikkaa mustalla rastilla varustettuja vihreitä pisteitä, niin voit zoomata sisään; viivalla varustettua vihreää pistettä, niin voit zoomata ulos tai vihreitä nuolia, niin pääset viereisille kartoille.


METAR-TAF: